Hauptseite
METAR-TAF:

METAR-TAF

Flughäfen :

Flughafen Logroño

Logroño, Spanien

Breite: 42-27N, Länge: 002-20W, Höhe: 353 m

Beobachtung

Neuester Wetterbericht von vor 33 Minuten, um 13:00 UTC
Wind 6 kt aus West, variierte zwischen Süd/Südwest und Nord/Nordwest
Temperatur 19°C
Luftfeuchtigkeit 46%
Luftdruck 1008 hPa
Sichtweite 10 km oder mehr
keine Wolken unter 1500 m und keine Kumulonimbus oder Gewitterwolken

METAR: LELO 151300Z 27006KT 210V330 CAVOK 19/07 Q1008

Zeit: 15:33 (13:33 UTC)

Prognose

Neuester Wetterbericht von vor 2 Stunden und 33 Minuten, um 11:00 UTC
Gültige Prognose vom 15 um 12 UTC bis 15 um 21 UTC
Wind 5 kt aus unterschiedlichen Richtungen
Sichtweite 10 km oder mehr
Leicht bewölkt in der Höhe von 5000 ft
Wahrscheinlichkeit 30% :
Zeitweise
vom 15 um 12 UTC bis 15 um 13 UTC
Wind 10 kt aus West

TAF: LELO 151100Z 1512/1521 VRB05KT 9999 FEW050 PROB30 TEMPO 1512/1513 27010KT

Wetterbeobachtungen und Prognosen von mehr als 4000 Flughäfen (METAR und TAF Bericht).

Die verfügbaren Stationen werden durch gelbe und rote Markierungen auf der Karte dargestellt.

Führen Sie die Maus auf sie, um den Namen der Station zu sehen.

Darauf klicken, um die Beobachtung von Wetterbeobachtungen und Prognosen zu sehen.

Um die Karte zu ändern : klicken Sie auf den grünen Tasten mit einem schwarzen Kreuz Zum Vergrößern, auf den grünen Button mit einem Gedankenstrich zu verkleinern, oder auf die grünen Pfeile für benachbarte Karten.


METAR-TAF: